createdAt,value
2023-01-28T00:01:46.866Z,2.90
2023-01-28T00:04:14.435Z,2.80
2023-01-28T00:06:41.358Z,2.42
2023-01-28T00:09:08.265Z,2.92
2023-01-28T00:11:35.089Z,3.47
2023-01-28T00:14:01.962Z,2.90
2023-01-28T00:16:30.189Z,2.55
2023-01-28T00:18:57.138Z,3.05
2023-01-28T00:21:23.949Z,2.95
2023-01-28T00:23:54.200Z,2.80
2023-01-28T00:26:22.226Z,2.33
2023-01-28T00:28:49.220Z,2.53
2023-01-28T00:31:26.135Z,2.60
2023-01-28T00:33:54.483Z,3.10
2023-01-28T00:36:23.101Z,2.58
2023-01-28T00:38:55.422Z,2.72
2023-01-28T00:41:24.588Z,2.50
2023-01-28T00:43:52.615Z,2.85
2023-01-28T00:46:20.649Z,2.63
2023-01-28T00:48:47.713Z,2.92
2023-01-28T00:51:17.204Z,2.50
2023-01-28T00:53:44.400Z,2.80
2023-01-28T00:56:14.337Z,2.83
2023-01-28T00:58:41.521Z,2.63
2023-01-28T01:01:21.552Z,2.47
2023-01-28T01:03:57.435Z,2.78
2023-01-28T01:06:25.348Z,2.80
2023-01-28T01:08:52.116Z,2.70
2023-01-28T01:11:19.401Z,2.72
2023-01-28T01:13:55.193Z,2.90
2023-01-28T01:16:24.241Z,2.83
2023-01-28T01:18:52.790Z,2.67
2023-01-28T01:21:22.621Z,3.30
2023-01-28T01:23:50.724Z,3.15
2023-01-28T01:26:17.497Z,3.00
2023-01-28T01:28:44.859Z,3.28
2023-01-28T01:31:15.213Z,3.13
2023-01-28T01:33:43.504Z,3.20
2023-01-28T01:36:12.039Z,3.33
2023-01-28T01:38:39.166Z,3.38
2023-01-28T01:41:06.971Z,3.72
2023-01-28T01:43:52.921Z,2.90
2023-01-28T01:46:37.970Z,3.00
2023-01-28T01:49:18.046Z,3.80
2023-01-28T01:51:48.857Z,3.30
2023-01-28T01:54:17.591Z,3.65
2023-01-28T01:56:48.775Z,3.13
2023-01-28T01:59:21.499Z,3.33
2023-01-28T02:01:48.727Z,3.47
2023-01-28T02:04:28.991Z,3.25
2023-01-28T02:06:57.072Z,3.15
2023-01-28T02:09:27.079Z,3.17
2023-01-28T02:11:58.503Z,3.47
2023-01-28T02:14:31.518Z,3.22
2023-01-28T02:17:00.760Z,3.50
2023-01-28T02:19:38.064Z,3.70
2023-01-28T02:22:33.690Z,3.70
2023-01-28T02:25:19.219Z,3.40
2023-01-28T02:28:06.885Z,3.80
2023-01-28T02:30:38.830Z,3.33
2023-01-28T02:33:16.758Z,3.45
2023-01-28T02:35:55.589Z,3.05
2023-01-28T02:38:45.703Z,3.78
2023-01-28T02:41:25.332Z,3.55
2023-01-28T02:43:52.116Z,3.72
2023-01-28T02:46:43.556Z,3.90
2023-01-28T02:49:21.707Z,4.20
2023-01-28T02:52:07.058Z,3.83
2023-01-28T02:55:04.022Z,3.88
2023-01-28T02:57:34.033Z,3.72
2023-01-28T03:00:22.414Z,4.43
2023-01-28T03:03:15.523Z,3.47
2023-01-28T03:06:07.002Z,4.00
2023-01-28T03:08:54.711Z,4.10
2023-01-28T03:11:40.827Z,3.45
2023-01-28T03:14:27.808Z,3.80
2023-01-28T03:17:14.973Z,3.75
2023-01-28T03:20:00.780Z,4.03
2023-01-28T03:22:49.750Z,3.72
2023-01-28T03:25:40.183Z,4.25
2023-01-28T03:28:29.988Z,3.80
2023-01-28T03:31:23.404Z,4.25
2023-01-28T03:34:10.662Z,4.03
2023-01-28T03:36:56.201Z,4.00
2023-01-28T03:39:28.989Z,3.90
2023-01-28T03:42:02.268Z,3.97
2023-01-28T03:44:47.753Z,4.47
2023-01-28T03:47:14.772Z,4.35
2023-01-28T03:49:49.165Z,4.25
2023-01-28T03:52:19.368Z,4.18
2023-01-28T03:54:49.811Z,4.25
2023-01-28T03:57:18.314Z,4.15
2023-01-28T03:59:45.369Z,4.20
2023-01-28T04:02:12.770Z,3.90
2023-01-28T04:04:40.688Z,4.22
2023-01-28T04:07:10.565Z,4.18
2023-01-28T04:09:37.965Z,4.28
2023-01-28T04:12:05.115Z,4.00
2023-01-28T04:14:32.146Z,4.13
2023-01-28T04:16:59.110Z,4.43
2023-01-28T04:19:26.832Z,4.55
2023-01-28T04:21:56.764Z,3.97
2023-01-28T04:24:23.940Z,4.50
2023-01-28T04:26:50.787Z,4.25
2023-01-28T04:29:17.559Z,4.22
2023-01-28T04:31:44.476Z,4.40
2023-01-28T04:34:11.286Z,4.07
2023-01-28T04:36:38.060Z,3.97
2023-01-28T04:39:04.854Z,3.92
2023-01-28T04:41:31.668Z,4.43
2023-01-28T04:43:58.402Z,4.15
2023-01-28T04:46:25.247Z,3.85
2023-01-28T04:48:51.998Z,3.80
2023-01-28T04:51:18.765Z,4.13
2023-01-28T04:53:45.529Z,4.32
2023-01-28T04:56:12.254Z,4.07
2023-01-28T04:58:39.600Z,4.07
2023-01-28T05:01:06.424Z,3.60
2023-01-28T05:03:35.944Z,3.90
2023-01-28T05:06:04.458Z,3.95
2023-01-28T05:08:31.219Z,3.50
2023-01-28T05:10:57.966Z,3.78
2023-01-28T05:13:25.338Z,3.70
2023-01-28T05:15:53.947Z,4.30
2023-01-28T05:18:20.944Z,3.67
2023-01-28T05:20:48.524Z,3.83
2023-01-28T05:23:15.423Z,4.05
2023-01-28T05:25:42.194Z,3.92
2023-01-28T05:28:08.990Z,3.75
2023-01-28T05:30:35.802Z,4.53
2023-01-28T05:33:02.564Z,3.97
2023-01-28T05:35:29.410Z,3.60
2023-01-28T05:37:56.520Z,4.03
2023-01-28T05:40:23.518Z,3.80
2023-01-28T05:42:50.277Z,3.53
2023-01-28T05:45:17.558Z,3.72
2023-01-28T05:47:45.828Z,3.85
2023-01-28T05:50:14.648Z,3.50
2023-01-28T05:52:41.992Z,3.80
2023-01-28T05:55:09.387Z,3.72
2023-01-28T05:57:36.283Z,4.25
2023-01-28T06:00:05.557Z,3.72
2023-01-28T06:02:32.701Z,3.60
2023-01-28T06:05:00.412Z,4.80
2023-01-28T06:07:27.368Z,6.75
2023-01-28T06:09:54.298Z,8.38
2023-01-28T06:12:21.076Z,7.68
2023-01-28T06:14:47.920Z,7.95
2023-01-28T06:17:14.658Z,7.35
2023-01-28T06:19:41.436Z,6.72
2023-01-28T06:22:08.588Z,5.88
2023-01-28T06:24:35.402Z,5.43
2023-01-28T06:27:02.174Z,4.93
2023-01-28T06:29:29.339Z,4.53
2023-01-28T06:31:56.110Z,4.05
2023-01-28T06:34:22.865Z,3.97
2023-01-28T06:36:50.916Z,3.78
2023-01-28T06:39:17.684Z,4.05
2023-01-28T06:41:44.437Z,3.88
2023-01-28T06:44:11.439Z,3.83
2023-01-28T06:46:38.290Z,3.95
2023-01-28T06:49:05.097Z,3.63
2023-01-28T06:51:31.920Z,3.55
2023-01-28T06:53:58.683Z,3.25
2023-01-28T06:56:25.503Z,3.55
2023-01-28T06:58:52.376Z,3.83
2023-01-28T07:01:19.129Z,3.65
2023-01-28T07:03:45.897Z,3.83
2023-01-28T07:06:12.709Z,3.90
2023-01-28T07:08:39.882Z,3.83
2023-01-28T07:11:07.047Z,3.92
2023-01-28T07:13:34.052Z,3.65
2023-01-28T07:16:01.103Z,4.03
2023-01-28T07:18:27.867Z,3.67
2023-01-28T07:20:54.653Z,4.45
2023-01-28T07:23:21.422Z,4.32
2023-01-28T07:25:48.162Z,4.05
2023-01-28T07:28:21.151Z,3.80
2023-01-28T07:30:53.462Z,4.22
2023-01-28T07:33:21.004Z,4.60
2023-01-28T07:35:48.590Z,4.10
2023-01-28T07:38:15.464Z,4.32
2023-01-28T07:40:48.322Z,4.30
2023-01-28T07:43:15.143Z,4.50
2023-01-28T07:45:41.963Z,3.97
2023-01-28T07:48:11.727Z,4.32
2023-01-28T07:50:39.621Z,4.60
2023-01-28T07:53:11.219Z,4.82
2023-01-28T07:55:38.788Z,4.40
2023-01-28T07:58:07.509Z,5.43
2023-01-28T08:00:36.354Z,5.40
2023-01-28T08:03:06.557Z,6.22
2023-01-28T08:05:50.761Z,6.60
2023-01-28T08:08:17.608Z,7.25
2023-01-28T08:10:44.836Z,8.60
2023-01-28T08:13:13.744Z,7.63
2023-01-28T08:15:40.974Z,7.05
2023-01-28T08:18:09.479Z,7.35
2023-01-28T08:20:36.709Z,6.80
2023-01-28T08:23:16.169Z,7.30
2023-01-28T08:25:43.547Z,7.28
2023-01-28T08:28:11.141Z,8.30
2023-01-28T08:30:38.924Z,9.38
2023-01-28T08:33:08.569Z,9.27
2023-01-28T08:35:35.834Z,9.48
2023-01-28T08:38:04.071Z,9.23
2023-01-28T08:40:31.391Z,9.02
2023-01-28T08:42:58.401Z,8.15
2023-01-28T08:45:28.017Z,9.75
2023-01-28T08:48:16.027Z,11.32
2023-01-28T08:50:43.593Z,11.27
2023-01-28T08:53:15.606Z,10.38
2023-01-28T08:55:42.860Z,9.95
2023-01-28T08:58:15.161Z,9.68
2023-01-28T09:00:43.252Z,9.75
2023-01-28T09:03:10.750Z,9.90
2023-01-28T09:05:38.348Z,9.38
2023-01-28T09:08:07.638Z,9.18
2023-01-28T09:10:34.500Z,8.85
2023-01-28T09:13:06.685Z,8.55
2023-01-28T09:15:34.131Z,8.00
2023-01-28T09:18:00.925Z,9.20
2023-01-28T09:20:27.935Z,8.40
2023-01-28T09:22:54.891Z,8.38
2023-01-28T09:25:21.835Z,9.05
2023-01-28T09:27:48.799Z,8.40
2023-01-28T09:30:16.225Z,8.25
2023-01-28T09:32:43.558Z,8.70
2023-01-28T09:35:10.763Z,8.77
2023-01-28T09:37:37.557Z,9.60
2023-01-28T09:40:05.647Z,9.30
2023-01-28T09:43:05.932Z,9.65
2023-01-28T09:45:42.979Z,10.43
2023-01-28T09:48:46.523Z,11.55
2023-01-28T09:51:40.946Z,11.25
2023-01-28T09:54:38.109Z,10.95
2023-01-28T09:57:11.977Z,11.20
2023-01-28T09:59:38.996Z,9.57
2023-01-28T10:02:26.020Z,10.15
2023-01-28T10:05:44.697Z,10.13
2023-01-28T10:08:20.903Z,10.20
2023-01-28T10:10:54.377Z,11.25
2023-01-28T10:13:55.774Z,11.27
2023-01-28T10:16:31.465Z,11.43
2023-01-28T10:19:00.686Z,11.40
2023-01-28T10:21:34.982Z,11.60
2023-01-28T10:24:15.060Z,9.90
2023-01-28T10:26:43.918Z,10.20
2023-01-28T10:29:19.291Z,10.15
2023-01-28T10:31:53.426Z,9.70
2023-01-28T10:34:21.411Z,9.30
2023-01-28T10:36:49.263Z,9.23
2023-01-28T10:39:18.507Z,8.98
2023-01-28T10:41:56.590Z,8.25
2023-01-28T10:44:35.715Z,7.75
2023-01-28T10:47:10.268Z,7.10
2023-01-28T10:49:43.409Z,6.47
2023-01-28T10:52:14.295Z,7.50
2023-01-28T10:54:41.145Z,8.10
2023-01-28T10:57:14.436Z,8.65
2023-01-28T10:59:42.020Z,9.93
2023-01-28T11:02:29.879Z,9.73
2023-01-28T11:05:21.044Z,9.73
2023-01-28T11:07:49.898Z,7.88
2023-01-28T11:10:43.495Z,8.05
2023-01-28T11:13:28.876Z,7.97
2023-01-28T11:16:02.994Z,7.22
2023-01-28T11:18:39.047Z,6.28
2023-01-28T11:21:14.032Z,6.70
2023-01-28T11:23:52.153Z,7.50
2023-01-28T11:26:23.101Z,7.85
2023-01-28T11:28:51.001Z,8.30
2023-01-28T11:31:19.550Z,7.82
2023-01-28T11:33:57.104Z,7.18
2023-01-28T11:36:26.192Z,7.72
2023-01-28T11:38:52.975Z,7.70
2023-01-28T11:41:38.919Z,7.85
2023-01-28T11:44:23.950Z,7.27
2023-01-28T11:47:12.439Z,9.45
2023-01-28T11:49:51.504Z,8.82
2023-01-28T11:53:04.974Z,9.02
2023-01-28T11:55:39.994Z,8.95
2023-01-28T11:58:16.545Z,7.70
2023-01-28T12:03:38.524Z,7.28
2023-01-28T12:06:26.747Z,7.22
2023-01-28T12:09:08.375Z,6.57
2023-01-28T12:12:12.584Z,7.15
2023-01-28T12:15:04.078Z,7.05
2023-01-28T12:17:49.315Z,7.07
2023-01-28T12:20:32.038Z,7.18
2023-01-28T12:23:20.563Z,6.70
2023-01-28T12:26:06.452Z,6.03
2023-01-28T12:29:01.553Z,5.70
2023-01-28T12:31:53.130Z,6.60
2023-01-28T12:34:25.506Z,6.30
2023-01-28T12:37:10.406Z,5.80
2023-01-28T12:40:05.750Z,6.28
2023-01-28T12:42:37.521Z,5.97
2023-01-28T12:45:17.278Z,5.28
2023-01-28T12:47:54.834Z,5.53
2023-01-28T12:50:33.119Z,5.65
2023-01-28T12:53:05.592Z,5.50
2023-01-28T12:56:24.417Z,5.07
2023-01-28T12:59:29.113Z,4.85
2023-01-28T13:02:09.249Z,5.43
2023-01-28T13:05:04.753Z,4.93
2023-01-28T13:07:56.401Z,4.05
2023-01-28T13:10:29.641Z,3.83
2023-01-28T13:12:57.759Z,3.60
2023-01-28T13:15:25.453Z,3.45
2023-01-28T13:18:03.398Z,3.08
2023-01-28T13:21:00.706Z,2.53
2023-01-28T13:23:45.867Z,2.63
2023-01-28T13:26:18.797Z,2.78
2023-01-28T13:28:51.387Z,2.50
2023-01-28T13:31:21.133Z,2.38
2023-01-28T13:34:00.106Z,2.33
2023-01-28T13:36:39.110Z,2.45
2023-01-28T13:39:12.069Z,2.90
2023-01-28T13:41:53.819Z,3.22
2023-01-28T13:44:30.081Z,3.00
2023-01-28T13:49:54.843Z,3.25
2023-01-28T13:52:26.845Z,2.60
2023-01-28T13:55:00.586Z,2.92
2023-01-28T13:57:45.509Z,2.70
2023-01-28T14:00:25.184Z,2.35
2023-01-28T14:03:21.038Z,2.40
2023-01-28T14:06:23.917Z,2.33
2023-01-28T14:09:25.475Z,2.80
2023-01-28T14:12:16.736Z,3.10
2023-01-28T14:15:17.718Z,2.65
2023-01-28T14:17:47.409Z,3.13
2023-01-28T14:20:45.334Z,2.85
2023-01-28T14:23:21.965Z,2.92
2023-01-28T14:26:38.666Z,3.05
2023-01-28T14:29:25.692Z,2.25
2023-01-28T14:31:53.926Z,2.45
2023-01-28T14:34:30.996Z,2.20
2023-01-28T14:37:08.252Z,2.33
2023-01-28T14:39:46.125Z,2.47
2023-01-28T14:42:25.677Z,2.10
2023-01-28T14:45:19.601Z,2.40
2023-01-28T14:47:52.370Z,2.00
2023-01-28T14:50:42.429Z,1.85
2023-01-28T14:53:21.465Z,1.88
2023-01-28T14:55:58.961Z,1.80
2023-01-28T14:58:31.901Z,1.75
2023-01-28T15:01:00.746Z,1.90
2023-01-28T15:03:29.609Z,1.95
2023-01-28T15:06:12.695Z,1.80
2023-01-28T15:08:40.484Z,1.80
2023-01-28T15:11:14.670Z,1.90
2023-01-28T15:13:45.167Z,2.00
2023-01-28T15:16:24.233Z,2.03
2023-01-28T15:18:51.779Z,2.22
2023-01-28T15:21:23.521Z,2.08
2023-01-28T15:23:53.677Z,2.20
2023-01-28T15:26:26.205Z,2.30
2023-01-28T15:28:54.628Z,2.40
2023-01-28T15:31:30.442Z,2.22
2023-01-28T15:34:02.619Z,3.10
2023-01-28T15:36:30.799Z,2.83
2023-01-28T15:38:58.180Z,3.40
2023-01-28T15:41:32.377Z,3.05
2023-01-28T15:43:59.847Z,3.67
2023-01-28T15:46:26.837Z,3.90
2023-01-28T15:49:02.236Z,3.40
2023-01-28T15:51:31.895Z,3.10
2023-01-28T15:54:01.937Z,3.50
2023-01-28T15:56:30.664Z,3.65
2023-01-28T15:59:21.974Z,3.47
2023-01-28T16:01:48.932Z,3.78
2023-01-28T16:04:24.924Z,3.33
2023-01-28T16:06:53.680Z,3.50
2023-01-28T16:09:26.541Z,4.35
2023-01-28T16:11:53.944Z,3.72
2023-01-28T16:14:28.186Z,3.72
2023-01-28T16:16:56.456Z,3.00
2023-01-28T16:19:42.050Z,3.53
2023-01-28T16:22:20.056Z,3.50
2023-01-28T16:24:52.807Z,3.80
2023-01-28T16:27:25.919Z,3.80
2023-01-28T16:29:52.856Z,3.20
2023-01-28T16:32:40.196Z,2.92
2023-01-28T16:35:13.836Z,2.90
2023-01-28T16:37:42.403Z,2.70
2023-01-28T16:40:11.477Z,2.80
2023-01-28T16:42:38.538Z,2.55
2023-01-28T16:45:05.896Z,2.50
2023-01-28T16:47:32.700Z,2.60
2023-01-28T16:49:59.447Z,2.63
2023-01-28T16:52:26.244Z,2.50
2023-01-28T16:54:53.161Z,2.40
2023-01-28T16:57:22.295Z,2.60
2023-01-28T16:59:49.083Z,2.92
2023-01-28T17:02:17.845Z,2.75
2023-01-28T17:04:44.666Z,2.40
2023-01-28T17:07:11.581Z,2.50
2023-01-28T17:09:38.354Z,2.50
2023-01-28T17:12:05.643Z,2.05
2023-01-28T17:14:32.666Z,1.90
2023-01-28T17:16:59.838Z,2.10
2023-01-28T17:19:26.628Z,1.92
2023-01-28T17:21:53.432Z,1.60
2023-01-28T17:24:20.742Z,2.17
2023-01-28T17:26:51.267Z,1.60
2023-01-28T17:29:18.388Z,2.20
2023-01-28T17:31:45.209Z,2.13
2023-01-28T17:34:12.376Z,2.17
2023-01-28T17:36:39.186Z,2.20
2023-01-28T17:39:07.457Z,2.10
2023-01-28T17:41:34.323Z,2.00
2023-01-28T17:44:01.309Z,2.00
2023-01-28T17:46:28.200Z,1.65
2023-01-28T17:48:54.995Z,1.65
2023-01-28T17:51:22.299Z,1.70
2023-01-28T17:53:53.537Z,1.80
2023-01-28T17:56:28.574Z,1.90
2023-01-28T17:58:58.116Z,2.08
2023-01-28T18:01:25.967Z,1.92
2023-01-28T18:03:53.058Z,1.63
2023-01-28T18:06:19.955Z,1.80
2023-01-28T18:08:46.818Z,1.88
2023-01-28T18:11:16.376Z,2.17
2023-01-28T18:13:43.655Z,2.17
2023-01-28T18:16:17.982Z,2.70
2023-01-28T18:18:45.324Z,3.28
2023-01-28T18:21:51.691Z,3.03
2023-01-28T18:24:20.790Z,3.83
2023-01-28T18:26:47.811Z,3.67
2023-01-28T18:29:17.095Z,3.85
2023-01-28T18:31:45.369Z,4.57
2023-01-28T18:34:12.195Z,4.60
2023-01-28T18:36:39.054Z,4.60
2023-01-28T18:39:05.984Z,4.65
2023-01-28T18:41:32.794Z,4.68
2023-01-28T18:43:59.583Z,4.72
2023-01-28T18:46:26.501Z,4.70
2023-01-28T18:48:53.273Z,5.40
2023-01-28T18:51:30.030Z,5.90
2023-01-28T18:54:02.788Z,6.10
2023-01-28T18:56:30.664Z,5.57
2023-01-28T18:58:59.194Z,5.60
2023-01-28T19:01:26.396Z,4.85
2023-01-28T19:03:54.798Z,4.97
2023-01-28T19:06:21.604Z,4.38
2023-01-28T19:08:56.422Z,4.32
2023-01-28T19:11:24.421Z,3.40
2023-01-28T19:13:51.777Z,3.65
2023-01-28T19:16:21.640Z,3.72
2023-01-28T19:18:56.610Z,4.05
2023-01-28T19:21:24.859Z,3.78
2023-01-28T19:23:56.588Z,3.65
2023-01-28T19:26:24.510Z,3.47
2023-01-28T19:28:51.621Z,4.10
2023-01-28T19:31:20.747Z,3.53
2023-01-28T19:33:48.591Z,2.95
2023-01-28T19:36:15.655Z,3.10
2023-01-28T19:38:42.693Z,2.60
2023-01-28T19:41:09.505Z,2.83
2023-01-28T19:43:37.391Z,2.60
2023-01-28T19:46:06.049Z,2.95
2023-01-28T19:48:33.805Z,2.20
2023-01-28T19:51:08.865Z,2.35
2023-01-28T19:53:37.431Z,2.30
2023-01-28T19:56:06.937Z,1.77
2023-01-28T19:58:38.554Z,2.33
2023-01-28T20:01:13.892Z,1.98
2023-01-28T20:03:40.809Z,2.07
2023-01-28T20:06:17.483Z,2.45
2023-01-28T20:08:44.729Z,2.13
2023-01-28T20:11:14.044Z,1.70
2023-01-28T20:13:43.582Z,1.80
2023-01-28T20:16:21.569Z,1.88
2023-01-28T20:18:53.638Z,1.95
2023-01-28T20:21:21.660Z,1.90
2023-01-28T20:23:50.094Z,1.83
2023-01-28T20:26:17.954Z,1.80
2023-01-28T20:28:44.727Z,1.70
2023-01-28T20:31:12.179Z,1.73
2023-01-28T20:33:40.047Z,1.80
2023-01-28T20:36:10.444Z,2.00
2023-01-28T20:38:39.605Z,1.80
2023-01-28T20:41:15.155Z,1.77
2023-01-28T20:43:43.925Z,2.30
2023-01-28T20:46:13.533Z,1.65
2023-01-28T20:48:40.610Z,1.80
2023-01-28T20:51:13.162Z,1.70
2023-01-28T20:53:41.074Z,2.00
2023-01-28T20:56:09.258Z,1.75
2023-01-28T20:58:36.206Z,1.90
2023-01-28T21:01:03.565Z,1.80
2023-01-28T21:03:30.836Z,1.90
2023-01-28T21:05:57.609Z,1.92
2023-01-28T21:08:25.127Z,1.90
2023-01-28T21:10:52.359Z,1.88
2023-01-28T21:13:19.404Z,1.85
2023-01-28T21:15:54.669Z,2.13
2023-01-28T21:18:21.883Z,1.90
2023-01-28T21:20:49.009Z,2.30
2023-01-28T21:23:16.026Z,1.67
2023-01-28T21:25:43.553Z,1.80
2023-01-28T21:28:11.031Z,1.85
2023-01-28T21:30:38.347Z,2.22
2023-01-28T21:33:05.834Z,1.70
2023-01-28T21:35:36.638Z,2.00
2023-01-28T21:38:04.208Z,1.70
2023-01-28T21:40:32.029Z,2.28
2023-01-28T21:42:59.536Z,1.98
2023-01-28T21:45:26.407Z,1.75
2023-01-28T21:47:54.245Z,2.13
2023-01-28T21:50:22.166Z,1.88
2023-01-28T21:52:50.371Z,1.90
2023-01-28T21:55:18.045Z,1.80
2023-01-28T21:57:44.894Z,2.08
2023-01-28T22:00:13.093Z,2.15
2023-01-28T22:02:40.178Z,2.00
2023-01-28T22:05:07.571Z,1.80
2023-01-28T22:07:34.345Z,2.25
2023-01-28T22:10:01.138Z,2.08
2023-01-28T22:12:28.126Z,1.77
2023-01-28T22:14:54.999Z,2.17
2023-01-28T22:17:23.183Z,1.70
2023-01-28T22:19:50.200Z,1.77
2023-01-28T22:22:17.968Z,1.80
2023-01-28T22:24:44.787Z,1.65
2023-01-28T22:27:11.678Z,1.80
2023-01-28T22:29:38.474Z,1.70
2023-01-28T22:32:05.550Z,1.85
2023-01-28T22:34:32.306Z,1.73
2023-01-28T22:36:59.556Z,1.85
2023-01-28T22:39:27.188Z,2.10
2023-01-28T22:41:53.986Z,1.75
2023-01-28T22:44:20.984Z,2.17
2023-01-28T22:46:48.266Z,2.25
2023-01-28T22:49:15.318Z,1.95
2023-01-28T22:51:42.275Z,1.95
2023-01-28T22:54:11.004Z,1.90
2023-01-28T22:56:38.367Z,1.88
2023-01-28T22:59:05.179Z,1.80
2023-01-28T23:01:33.072Z,1.90
2023-01-28T23:04:00.147Z,1.83
2023-01-28T23:06:28.333Z,1.90
2023-01-28T23:08:56.339Z,1.70
2023-01-28T23:11:27.354Z,1.63
2023-01-28T23:14:18.930Z,1.80
2023-01-28T23:17:05.527Z,1.70
2023-01-28T23:19:51.964Z,1.60
2023-01-28T23:22:44.957Z,1.88
2023-01-28T23:25:12.011Z,2.22
2023-01-28T23:27:38.836Z,2.00
2023-01-28T23:30:10.024Z,1.80
2023-01-28T23:32:39.974Z,1.80
2023-01-28T23:35:08.611Z,1.70
2023-01-28T23:37:35.387Z,1.80
2023-01-28T23:40:03.318Z,1.60
2023-01-28T23:42:30.625Z,1.50
2023-01-28T23:44:57.380Z,1.45
2023-01-28T23:47:24.345Z,1.63
2023-01-28T23:49:51.195Z,1.40
2023-01-28T23:52:18.019Z,1.60
2023-01-28T23:54:44.791Z,1.55
2023-01-28T23:57:11.599Z,1.67
2023-01-28T23:59:38.342Z,1.45
